Time,TemperatureF,DewpointF,PressureIn,WindDirection,WindDirectionDegrees,WindSpeedMPH,WindSpeedGustMPH,Humidity,HourlyPrecipIn,Conditions,Clouds,dailyrainin,SoftwareType,DateUTC
2014-04-16 00:00:00,25.5,20.2,30.16,NE,44,0.0,0.0,80,0.00,RA,,0.00,WeatherDisplay:10.37,2014-04-16 05:00:00,
2014-04-16 00:01:00,25.4,20.1,30.16,NE,44,0.0,0.0,80,0.00,RA,,0.00,WeatherDisplay:10.37,2014-04-16 05:01:00,
2014-04-16 00:03:00,25.4,20.1,30.16,NE,44,0.0,0.0,80,0.00,RA,,0.00,WeatherDisplay:10.37,2014-04-16 05:03:00,
2014-04-16 00:04:00,25.3,20.0,30.16,NE,44,0.0,0.0,80,0.00,RA,,0.00,WeatherDisplay:10.37,2014-04-16 05:04:00,
2014-04-16 00:05:00,25.4,20.1,30.16,NE,44,0.0,0.0,80,0.00,RA,,0.00,WeatherDisplay:10.37,2014-04-16 05:05:00,
2014-04-16 00:07:00,25.3,20.0,30.16,NE,44,0.0,0.0,80,0.00,RA,,0.00,WeatherDisplay:10.37,2014-04-16 05:07:00,
2014-04-16 00:08:00,25.3,20.0,30.16,NE,44,0.0,0.0,80,0.00,RA,,0.00,WeatherDisplay:10.37,2014-04-16 05:08:00,
2014-04-16 00:09:00,25.2,19.9,30.16,NE,44,0.0,0.0,80,0.00,RA,,0.00,WeatherDisplay:10.37,2014-04-16 05:09:00,
2014-04-16 00:10:00,25.2,19.9,30.16,NE,44,0.0,0.0,80,0.00,CLR,,0.00,WeatherDisplay:10.37,2014-04-16 05:10:00,
2014-04-16 00:13:00,25.2,19.9,30.17,NE,44,0.0,0.0,80,0.00,CLR,,0.00,WeatherDisplay:10.37,2014-04-16 05:13:00,
2014-04-16 00:14:00,25.2,19.9,30.16,NE,44,0.0,0.0,80,0.00,CLR,,0.00,WeatherDisplay:10.37,2014-04-16 05:14:00,
2014-04-16 00:15:00,25.1,20.1,30.16,NE,44,0.0,0.0,81,0.00,CLR,,0.00,WeatherDisplay:10.37,2014-04-16 05:15:00,
2014-04-16 00:18:00,25.0,20.0,30.16,ENE,73,1.4,3.5,81,0.00,CLR,,0.00,WeatherDisplay:10.37,2014-04-16 05:18:00,
2014-04-16 00:20:00,25.1,20.1,30.16,ESE,112,0.3,1.2,81,0.00,CLR,,0.00,WeatherDisplay:10.37,2014-04-16 05:20:00,
2014-04-16 00:23:00,24.9,19.9,30.16,East,100,1.1,2.3,81,0.00,CLR,,0.00,WeatherDisplay:10.37,2014-04-16 05:23:00,
2014-04-16 00:25:00,24.9,19.9,30.16,ENE,64,2.2,4.6,81,0.00,CLR,,0.00,WeatherDisplay:10.37,2014-04-16 05:25:00,
2014-04-16 00:26:00,24.9,19.9,30.16,ESE,116,0.7,3.5,81,0.00,CLR,,0.00,WeatherDisplay:10.37,2014-04-16 05:26:00,
2014-04-16 00:28:00,24.9,19.9,30.16,SE,126,2.7,4.6,81,0.00,CLR,,0.00,WeatherDisplay:10.37,2014-04-16 05:28:00,
2014-04-16 00:29:00,24.9,19.9,30.16,SSE,157,2.4,4.6,81,0.00,CLR,,0.00,WeatherDisplay:10.37,2014-04-16 05:29:00,
2014-04-16 00:30:00,24.8,19.8,30.16,SE,124,2.1,3.5,81,0.00,CLR,,0.00,WeatherDisplay:10.37,2014-04-16 05:30:00,
2014-04-16 00:31:00,24.8,19.8,30.16,ESE,117,2.3,3.5,81,0.00,CLR,,0.00,WeatherDisplay:10.37,2014-04-16 05:31:00,
2014-04-16 00:34:00,24.9,19.9,30.16,SE,131,3.0,5.8,81,0.00,CLR,,0.00,WeatherDisplay:10.37,2014-04-16 05:34:00,
2014-04-16 00:35:00,24.7,19.7,30.16,ENE,76,3.2,4.6,81,0.00,CLR,,0.00,WeatherDisplay:10.37,2014-04-16 05:35:00,
2014-04-16 00:36:00,24.9,19.9,30.16,ESE,121,2.2,4.6,81,0.00,CLR,,0.00,WeatherDisplay:10.37,2014-04-16 05:36:00,
2014-04-16 00:37:00,24.9,19.9,30.16,ESE,112,2.0,2.3,81,0.00,CLR,,0.00,WeatherDisplay:10.37,2014-04-16 05:37:00,
2014-04-16 00:39:00,25.0,20.0,30.16,SE,140,2.3,3.5,81,0.00,CLR,,0.00,WeatherDisplay:10.37,2014-04-16 05:39:00,
2014-04-16 00:40:00,25.0,20.0,30.16,ESE,123,1.6,3.5,81,0.00,CLR,,0.00,WeatherDisplay:10.37,2014-04-16 05:40:00,
2014-04-16 00:41:00,24.9,19.9,30.16,ESE,117,0.8,2.3,81,0.00,CLR,,0.00,WeatherDisplay:10.37,2014-04-16 05:41:00,
2014-04-16 00:42:00,25.0,20.0,30.16,SE,138,3.7,4.6,81,0.00,CLR,,0.00,WeatherDisplay:10.37,2014-04-16 05:42:00,
2014-04-16 00:44:00,25.0,20.0,30.16,ESE,114,2.8,5.8,81,0.00,CLR,,0.00,WeatherDisplay:10.37,2014-04-16 05:44:00,
2014-04-16 00:45:00,25.0,20.0,30.17,ESE,113,1.2,2.3,81,0.00,CLR,,0.00,WeatherDisplay:10.37,2014-04-16 05:45:00,
2014-04-16 00:46:00,25.0,20.0,30.17,ESE,123,1.2,2.6,81,0.00,CLR,,0.00,WeatherDisplay:10.37,2014-04-16 05:46:00,
2014-04-16 00:47:00,25.0,20.0,30.16,SE,126,2.9,3.5,81,0.00,CLR,,0.00,WeatherDisplay:10.37,2014-04-16 05:47:00,
2014-04-16 00:48:00,25.0,20.0,30.16,ESE,113,2.8,3.5,81,0.00,CLR,,0.00,WeatherDisplay:10.37,2014-04-16 05:48:00,
2014-04-16 00:49:00,25.0,20.0,30.17,SE,136,3.0,5.0,81,0.00,CLR,,0.00,WeatherDisplay:10.37,2014-04-16 05:49:00,
2014-04-16 00:50:00,25.1,20.1,30.17,ESE,112,3.1,4.6,81,0.00,CLR,,0.00,WeatherDisplay:10.37,2014-04-16 05:50:00,
2014-04-16 00:51:00,25.0,20.0,30.17,SE,131,1.4,2.5,81,0.00,CLR,,0.00,WeatherDisplay:10.37,2014-04-16 05:51:00,
2014-04-16 00:53:00,25.0,20.0,30.17,ESE,107,2.5,5.5,81,0.00,CLR,,0.00,WeatherDisplay:10.37,2014-04-16 05:53:00,
2014-04-16 00:54:00,25.1,20.1,30.16,SE,137,1.7,5.8,81,0.00,CLR,,0.00,WeatherDisplay:10.37,2014-04-16 05:54:00,
2014-04-16 00:55:00,25.1,20.1,30.16,SE,131,2.3,2.8,81,0.00,CLR,,0.00,WeatherDisplay:10.37,2014-04-16 05:55:00,
2014-04-16 00:56:00,25.1,19.8,30.17,ESE,120,3.7,6.9,80,0.00,CLR,,0.00,WeatherDisplay:10.37,2014-04-16 05:56:00,
2014-04-16 00:58:00,25.2,19.9,30.16,SE,138,3.5,6.9,80,0.00,CLR,,0.00,WeatherDisplay:10.37,2014-04-16 05:58:00,
2014-04-16 00:59:00,25.2,19.9,30.16,ENE,62,2.3,3.5,80,0.00,CLR,,0.00,WeatherDisplay:10.37,2014-04-16 05:59:00,
2014-04-16 01:00:00,25.1,19.8,30.17,SE,127,1.9,3.5,80,0.00,CLR,,0.00,WeatherDisplay:10.37,2014-04-16 06:00:00,
2014-04-16 01:01:00,25.2,19.9,30.17,SE,136,0.8,3.5,80,0.00,CLR,,0.00,WeatherDisplay:10.37,2014-04-16 06:01:00,
2014-04-16 01:03:00,25.1,19.8,30.17,SE,141,2.5,3.5,80,0.00,CLR,,0.00,WeatherDisplay:10.37,2014-04-16 06:03:00,
2014-04-16 01:05:00,25.3,20.0,30.17,SE,138,3.1,4.6,80,0.00,CLR,,0.00,WeatherDisplay:10.37,2014-04-16 06:05:00,
2014-04-16 01:07:00,25.2,19.9,30.17,SE,128,2.8,5.2,80,0.00,CLR,,0.00,WeatherDisplay:10.37,2014-04-16 06:07:00,
2014-04-16 01:08:00,25.2,19.9,30.17,SE,145,3.3,5.8,80,0.00,CLR,,0.00,WeatherDisplay:10.37,2014-04-16 06:08:00,
2014-04-16 01:10:00,25.2,19.9,30.17,SE,141,2.0,3.5,80,0.00,CLR,,0.00,WeatherDisplay:10.37,2014-04-16 06:10:00,
2014-04-16 01:12:00,25.4,20.1,30.17,SSE,152,3.2,3.6,80,0.00,CLR,,0.00,WeatherDisplay:10.37,2014-04-16 06:12:00,
2014-04-16 01:14:00,25.4,20.1,30.17,SE,127,3.4,6.9,80,0.00,CLR,,0.00,WeatherDisplay:10.37,2014-04-16 06:14:00,
2014-04-16 01:15:00,25.3,20.0,30.17,ESE,112,2.6,4.6,80,0.00,CLR,,0.00,WeatherDisplay:10.37,2014-04-16 06:15:00,
2014-04-16 01:16:00,25.4,20.1,30.16,SE,143,3.3,5.8,80,0.00,CLR,,0.00,WeatherDisplay:10.37,2014-04-16 06:16:00,
2014-04-16 01:17:00,25.4,20.1,30.17,ESE,104,2.1,3.5,80,0.00,CLR,,0.00,WeatherDisplay:10.37,2014-04-16 06:17:00,
2014-04-16 01:19:00,25.4,20.1,30.17,SE,136,1.1,1.8,80,0.00,CLR,,0.00,WeatherDisplay:10.37,2014-04-16 06:19:00,
2014-04-16 01:20:00,25.4,19.8,30.16,SE,136,2.6,4.6,79,0.00,CLR,,0.00,WeatherDisplay:10.37,2014-04-16 06:20:00,
2014-04-16 01:21:00,25.5,19.9,30.16,SSE,150,2.3,4.6,79,0.00,CLR,,0.00,WeatherDisplay:10.37,2014-04-16 06:21:00,
2014-04-16 01:22:00,25.4,19.8,30.16,SE,138,2.9,4.6,79,0.00,CLR,,0.00,WeatherDisplay:10.37,2014-04-16 06:22:00,
2014-04-16 01:24:00,25.4,19.8,30.16,SE,128,4.8,5.8,79,0.00,CLR,,0.00,WeatherDisplay:10.37,2014-04-16 06:24:00,
2014-04-16 01:25:00,25.5,19.9,30.16,SSE,155,4.7,6.9,79,0.00,CLR,,0.00,WeatherDisplay:10.37,2014-04-16 06:25:00,
2014-04-16 01:26:00,25.5,19.9,30.16,East,88,2.2,5.8,79,0.00,CLR,,0.00,WeatherDisplay:10.37,2014-04-16 06:26:00,
2014-04-16 01:27:00,25.5,19.9,30.16,ESE,120,2.0,3.5,79,0.00,CLR,,0.00,WeatherDisplay:10.37,2014-04-16 06:27:00,
2014-04-16 01:29:00,25.6,20.0,30.16,SSE,155,3.0,3.5,79,0.00,CLR,,0.00,WeatherDisplay:10.37,2014-04-16 06:29:00,
2014-04-16 01:30:00,25.6,20.0,30.16,ESE,121,3.2,6.5,79,0.00,CLR,,0.00,WeatherDisplay:10.37,2014-04-16 06:30:00,
2014-04-16 01:31:00,25.6,20.0,30.16,SSE,147,4.8,6.9,79,0.00,CLR,,0.00,WeatherDisplay:10.37,2014-04-16 06:31:00,
2014-04-16 01:32:00,25.7,20.1,30.16,ESE,107,4.3,8.3,79,0.00,CLR,,0.00,WeatherDisplay:10.37,2014-04-16 06:32:00,
2014-04-16 01:35:00,25.7,20.1,30.16,SSE,162,4.4,6.9,79,0.00,CLR,,0.00,WeatherDisplay:10.37,2014-04-16 06:35:00,
2014-04-16 01:36:00,25.9,20.3,30.16,ESE,120,4.0,6.9,79,0.00,CLR,,0.00,WeatherDisplay:10.37,2014-04-16 06:36:00,
2014-04-16 01:38:00,26.0,20.4,30.16,ESE,114,5.3,6.9,79,0.00,CLR,,0.00,WeatherDisplay:10.37,2014-04-16 06:38:00,
2014-04-16 01:40:00,26.0,20.4,30.16,SE,134,2.6,5.8,79,0.00,CLR,,0.00,WeatherDisplay:10.37,2014-04-16 06:40:00,
2014-04-16 01:41:00,26.1,20.5,30.16,SSW,210,3.8,5.8,79,0.00,CLR,,0.00,WeatherDisplay:10.37,2014-04-16 06:41:00,
2014-04-16 01:43:00,26.2,20.6,30.16,ESE,121,3.7,4.6,79,0.00,CLR,,0.00,WeatherDisplay:10.37,2014-04-16 06:43:00,
2014-04-16 01:45:00,26.3,20.7,30.16,ESE,114,3.5,4.6,79,0.00,CLR,,0.00,WeatherDisplay:10.37,2014-04-16 06:45:00,
2014-04-16 01:46:00,26.3,20.7,30.16,SSE,157,3.5,4.6,79,0.00,CLR,,0.00,WeatherDisplay:10.37,2014-04-16 06:46:00,
2014-04-16 01:47:00,26.3,20.7,30.17,South,169,3.2,5.4,79,0.00,CLR,,0.00,WeatherDisplay:10.37,2014-04-16 06:47:00,
2014-04-16 01:48:00,26.3,20.7,30.17,SSE,167,2.1,5.8,79,0.00,CLR,,0.00,WeatherDisplay:10.37,2014-04-16 06:48:00,
2014-04-16 01:51:00,26.4,20.8,30.16,ENE,75,2.3,5.8,79,0.00,CLR,,0.00,WeatherDisplay:10.37,2014-04-16 06:51:00,
2014-04-16 01:52:00,26.4,20.8,30.17,ESE,107,1.9,5.3,79,0.00,CLR,,0.00,WeatherDisplay:10.37,2014-04-16 06:52:00,
2014-04-16 01:53:00,26.5,20.9,30.17,SSE,154,3.5,5.8,79,0.00,CLR,,0.00,WeatherDisplay:10.37,2014-04-16 06:53:00,
2014-04-16 01:56:00,26.5,20.9,30.17,SE,128,2.4,3.5,79,0.00,CLR,,0.00,WeatherDisplay:10.37,2014-04-16 06:56:00,
2014-04-16 01:58:00,26.6,21.0,30.17,SE,145,4.3,6.9,79,0.00,CLR,,0.00,WeatherDisplay:10.37,2014-04-16 06:58:00,
2014-04-16 02:01:00,26.7,21.1,30.17,SSE,160,3.9,8.1,79,0.00,CLR,,0.00,WeatherDisplay:10.37,2014-04-16 07:01:00,
2014-04-16 02:02:00,26.7,20.8,30.17,SSE,148,3.9,5.8,78,0.00,CLR,,0.00,WeatherDisplay:10.37,2014-04-16 07:02:00,
2014-04-16 02:03:00,26.7,20.8,30.17,SSE,161,3.4,5.8,78,0.00,CLR,,0.00,WeatherDisplay:10.37,2014-04-16 07:03:00,
2014-04-16 02:06:00,26.8,20.9,30.16,East,100,6.2,6.9,78,0.00,CLR,,0.00,WeatherDisplay:10.37,2014-04-16 07:06:00,
2014-04-16 02:07:00,26.9,21.0,30.16,SE,144,4.8,9.2,78,0.00,CLR,,0.00,WeatherDisplay:10.37,2014-04-16 07:07:00,
2014-04-16 02:08:00,26.8,20.9,30.16,SE,128,3.9,6.9,78,0.00,CLR,,0.00,WeatherDisplay:10.37,2014-04-16 07:08:00,
2014-04-16 02:11:00,26.9,21.0,30.16,ESE,113,4.4,6.9,78,0.00,CLR,,0.00,WeatherDisplay:10.37,2014-04-16 07:11:00,
2014-04-16 02:12:00,27.0,21.1,30.16,ESE,120,3.9,6.2,78,0.00,CLR,,0.00,WeatherDisplay:10.37,2014-04-16 07:12:00,
2014-04-16 02:13:00,27.0,21.1,30.16,SE,136,4.0,5.8,78,0.00,CLR,,0.00,WeatherDisplay:10.37,2014-04-16 07:13:00,
2014-04-16 02:16:00,27.0,21.1,30.16,SSE,161,4.1,8.1,78,0.00,CLR,,0.00,WeatherDisplay:10.37,2014-04-16 07:16:00,
2014-04-16 02:17:00,27.1,21.2,30.16,SE,134,2.9,5.8,78,0.00,CLR,,0.00,WeatherDisplay:10.37,2014-04-16 07:17:00,
2014-04-16 02:18:00,27.1,21.2,30.16,South,171,2.4,4.6,78,0.00,CLR,,0.00,WeatherDisplay:10.37,2014-04-16 07:18:00,
2014-04-16 02:19:00,27.1,21.2,30.16,SSE,161,2.2,4.6,78,0.00,CLR,,0.00,WeatherDisplay:10.37,2014-04-16 07:19:00,
2014-04-16 02:22:00,27.1,21.2,30.16,SE,137,3.0,6.9,78,0.00,CLR,,0.00,WeatherDisplay:10.37,2014-04-16 07:22:00,
2014-04-16 02:23:00,27.2,21.2,30.16,SE,124,3.7,4.8,78,0.00,CLR,,0.00,WeatherDisplay:10.37,2014-04-16 07:23:00,
2014-04-16 02:24:00,27.2,21.2,30.16,SE,126,5.5,9.2,78,0.00,CLR,,0.00,WeatherDisplay:10.37,2014-04-16 07:24:00,
2014-04-16 02:27:00,27.2,20.9,30.16,South,172,3.8,4.6,77,0.00,CLR,,0.00,WeatherDisplay:10.37,2014-04-16 07:27:00,
2014-04-16 02:28:00,27.3,21.0,30.16,SSE,157,2.8,5.8,77,0.00,CLR,,0.00,WeatherDisplay:10.37,2014-04-16 07:28:00,
2014-04-16 02:29:00,27.4,21.1,30.16,ESE,114,2.3,4.6,77,0.00,CLR,,0.00,WeatherDisplay:10.37,2014-04-16 07:29:00,
2014-04-16 02:31:00,27.4,21.1,30.16,SE,144,2.7,4.6,77,0.00,CLR,,0.00,WeatherDisplay:10.37,2014-04-16 07:31:00,
2014-04-16 02:32:00,27.4,21.1,30.16,SE,128,3.7,6.0,77,0.00,CLR,,0.00,WeatherDisplay:10.37,2014-04-16 07:32:00,
2014-04-16 02:33:00,27.4,21.1,30.16,SE,136,6.1,9.2,77,0.00,CLR,,0.00,WeatherDisplay:10.37,2014-04-16 07:33:00,
2014-04-16 02:34:00,27.4,21.1,30.16,SSE,157,3.8,6.9,77,0.00,CLR,,0.00,WeatherDisplay:10.37,2014-04-16 07:34:00,
2014-04-16 02:36:00,27.4,21.1,30.16,SE,144,1.7,8.1,77,0.00,CLR,,0.00,WeatherDisplay:10.37,2014-04-16 07:36:00,
2014-04-16 02:37:00,27.4,21.1,30.16,ESE,117,2.4,3.5,77,0.00,CLR,,0.00,WeatherDisplay:10.37,2014-04-16 07:37:00,
2014-04-16 02:39:00,27.5,21.2,30.16,SSE,154,4.1,6.9,77,0.00,CLR,,0.00,WeatherDisplay:10.37,2014-04-16 07:39:00,
2014-04-16 02:40:00,27.5,21.2,30.16,SE,140,4.9,6.9,77,0.00,CLR,,0.00,WeatherDisplay:10.37,2014-04-16 07:40:00,
2014-04-16 02:41:00,27.6,21.3,30.16,East,96,3.1,6.9,77,0.00,CLR,,0.00,WeatherDisplay:10.37,2014-04-16 07:41:00,
2014-04-16 02:42:00,27.5,21.2,30.16,East,100,4.7,6.9,77,0.00,CLR,,0.00,WeatherDisplay:10.37,2014-04-16 07:42:00,
2014-04-16 02:44:00,27.6,21.3,30.16,SSE,157,4.3,6.9,77,0.00,CLR,,0.00,WeatherDisplay:10.37,2014-04-16 07:44:00,
2014-04-16 02:45:00,27.6,21.3,30.16,SSE,160,3.9,5.8,77,0.00,CLR,,0.00,WeatherDisplay:10.37,2014-04-16 07:45:00,
2014-04-16 02:46:00,27.6,21.3,30.16,ESE,113,2.4,5.8,77,0.00,CLR,,0.00,WeatherDisplay:10.37,2014-04-16 07:46:00,
2014-04-16 02:47:00,27.6,21.0,30.16,SE,145,5.0,6.9,76,0.00,CLR,,0.00,WeatherDisplay:10.37,2014-04-16 07:47:00,
2014-04-16 02:49:00,27.7,21.1,30.16,SE,141,3.1,5.8,76,0.00,CLR,,0.00,WeatherDisplay:10.37,2014-04-16 07:49:00,
2014-04-16 02:50:00,27.6,21.0,30.16,ESE,123,3.1,3.5,76,0.00,CLR,,0.00,WeatherDisplay:10.37,2014-04-16 07:50:00,
2014-04-16 02:51:00,27.7,21.1,30.16,SSE,161,3.5,4.6,76,0.00,CLR,,0.00,WeatherDisplay:10.37,2014-04-16 07:51:00,
2014-04-16 02:52:00,27.7,21.1,30.16,ESE,117,4.9,5.5,76,0.00,CLR,,0.00,WeatherDisplay:10.37,2014-04-16 07:52:00,
2014-04-16 02:55:00,27.7,21.1,30.16,ESE,114,2.8,5.8,76,0.00,CLR,,0.00,WeatherDisplay:10.37,2014-04-16 07:55:00,
2014-04-16 02:56:00,27.7,21.1,30.16,ESE,120,4.4,6.9,76,0.00,CLR,,0.00,WeatherDisplay:10.37,2014-04-16 07:56:00,
2014-04-16 02:57:00,27.6,21.0,30.16,ESE,113,2.7,5.8,76,0.00,CLR,,0.00,WeatherDisplay:10.37,2014-04-16 07:57:00,
2014-04-16 03:00:00,27.7,21.1,30.16,ESE,109,5.4,8.1,76,0.00,CLR,,0.00,WeatherDisplay:10.37,2014-04-16 08:00:00,
2014-04-16 03:01:00,27.6,21.0,30.16,SE,143,2.8,5.8,76,0.00,CLR,,0.00,WeatherDisplay:10.37,2014-04-16 08:01:00,
2014-04-16 03:02:00,27.7,21.1,30.16,ESE,121,2.6,4.6,76,0.00,CLR,,0.00,WeatherDisplay:10.37,2014-04-16 08:02:00,
2014-04-16 03:05:00,27.7,21.1,30.16,SE,126,5.4,8.1,76,0.00,CLR,,0.00,WeatherDisplay:10.37,2014-04-16 08:05:00,
2014-04-16 03:06:00,27.7,21.1,30.16,SSE,150,3.9,5.8,76,0.00,CLR,,0.00,WeatherDisplay:10.37,2014-04-16 08:06:00,
2014-04-16 03:07:00,27.7,21.1,30.16,ESE,119,4.7,6.9,76,0.00,CLR,,0.00,WeatherDisplay:10.37,2014-04-16 08:07:00,